Time;durP1;ratioP1;P1;durP2;ratioP2;P2;SDS_P1;SDS_P2;PMS_P1;PMS_P2;Temp;Humidity;BMP_temperature;BMP_pressure;BME280_temperature;BME280_humidity;BME280_pressure;Samples;Min_cycle;Max_cycle;Signal;HPM_P1;HPM_P2
2022/03/28 00:00:29;;;;;;;12.73;4.63;;;;;;;6.73;87.43;102945.75;5076150;28;20232;-72
2022/03/28 00:02:59;;;;;;;17.35;4.32;;;;;;;6.73;87.58;102937.03;5074487;28;20298;-72
2022/03/28 00:05:27;;;;;;;18.52;3.88;;;;;;;6.69;87.98;102940.25;5078648;28;20359;-78
2022/03/28 00:07:55;;;;;;;14.88;5.10;;;;;;;6.66;87.79;102940.97;5078184;28;20048;-78
2022/03/28 00:10:23;;;;;;;16.35;4.07;;;;;;;6.62;87.79;102945.88;5082124;28;20116;-78
2022/03/28 00:12:51;;;;;;;15.05;4.03;;;;;;;6.58;87.08;102942.19;5073821;28;20176;-78
2022/03/28 00:15:22;;;;;;;17.05;4.45;;;;;;;6.54;87.42;102930.66;5082355;28;20050;-78
2022/03/28 00:17:50;;;;;;;18.77;4.25;;;;;;;6.51;88.46;102933.06;5077911;28;20052;-78
2022/03/28 00:20:19;;;;;;;21.48;4.75;;;;;;;6.48;88.05;102930.28;5083484;28;20447;-78
2022/03/28 00:22:47;;;;;;;13.40;4.10;;;;;;;6.46;87.88;102926.69;5083479;28;20044;-78
2022/03/28 00:25:15;;;;;;;14.65;3.95;;;;;;;6.45;87.66;102923.97;5079620;28;20089;-78
2022/03/28 00:27:43;;;;;;;17.33;4.45;;;;;;;6.46;88.51;102931.88;5079570;28;20147;-78
2022/03/28 00:30:14;;;;;;;15.43;4.03;;;;;;;6.44;87.60;102925.69;5072863;28;20873;-77
2022/03/28 00:32:42;;;;;;;15.25;4.75;;;;;;;6.41;88.04;102922.88;5076188;28;20044;-78
2022/03/28 00:35:10;;;;;;;13.75;4.55;;;;;;;6.39;88.55;102923.59;5080487;28;20607;-78
2022/03/28 00:37:41;;;;;;;15.25;4.95;;;;;;;6.37;88.54;102905.25;5079957;28;20047;-78
2022/03/28 00:40:11;;;;;;;19.55;4.53;;;;;;;6.36;88.34;102919.06;5078624;28;20083;-78
2022/03/28 00:42:40;;;;;;;17.45;4.30;;;;;;;6.34;88.86;102909.34;5075130;28;20104;-78
2022/03/28 00:45:09;;;;;;;14.48;4.00;;;;;;;6.34;88.87;102910.25;5075931;28;20040;-73
2022/03/28 00:47:37;;;;;;;13.35;4.20;;;;;;;6.32;88.72;102901.44;5064482;28;20048;-73
2022/03/28 00:50:06;;;;;;;16.45;4.00;;;;;;;6.27;88.93;102907.16;5066925;28;20135;-73
2022/03/28 00:52:38;;;;;;;19.65;4.90;;;;;;;6.26;88.23;102900.16;5075559;28;20457;-73
2022/03/28 00:55:09;;;;;;;16.73;4.63;;;;;;;6.26;88.57;102894.94;5076438;28;20044;-73
2022/03/28 00:57:39;;;;;;;21.50;4.88;;;;;;;6.21;88.33;102892.97;5076447;28;20052;-73
2022/03/28 01:00:10;;;;;;;22.00;5.60;;;;;;;6.17;88.76;102883.16;5077622;28;20101;-73
2022/03/28 01:02:39;;;;;;;19.00;4.93;;;;;;;6.15;88.50;102886.47;5077896;28;20464;-73
2022/03/28 01:05:08;;;;;;;15.05;4.35;;;;;;;6.14;88.68;102882.06;5077383;28;20047;-73
2022/03/28 01:07:39;;;;;;;22.75;4.85;;;;;;;6.11;88.70;102880.16;5070764;28;20043;-73
2022/03/28 01:10:11;;;;;;;15.82;4.85;;;;;;;6.09;88.93;102876.56;5072275;28;20102;-73
2022/03/28 01:12:42;;;;;;;17.23;5.05;;;;;;;6.08;89.03;102864.34;5070323;28;20051;-74
2022/03/28 01:15:12;;;;;;;16.20;4.43;;;;;;;6.08;88.85;102863.44;5066669;28;20056;-73
2022/03/28 01:20:27;;;;;;;13.63;3.72;;;;;;;6.03;88.91;102864.84;5076250;28;20040;-74
2022/03/28 01:22:57;;;;;;;12.48;4.65;;;;;;;5.99;88.65;102866.38;5078641;28;20135;-74
2022/03/28 01:25:29;;;;;;;14.45;4.60;;;;;;;5.96;88.64;102876.59;5076805;28;20141;-73
2022/03/28 01:27:58;;;;;;;22.02;4.82;;;;;;;5.93;88.47;102872.88;5074797;28;20079;-73
2022/03/28 01:30:28;;;;;;;28.88;5.05;;;;;;;5.87;89.01;102862.94;5075166;28;20179;-73
2022/03/28 01:32:59;;;;;;;15.93;4.55;;;;;;;5.86;89.01;102863.75;5066735;28;20138;-73
2022/03/28 01:35:32;;;;;;;20.52;5.32;;;;;;;5.83;89.03;102856.63;5075376;28;20048;-73
2022/03/28 01:38:03;;;;;;;23.75;5.00;;;;;;;5.81;89.27;102859.94;5056810;28;20555;-73
2022/03/28 01:40:31;;;;;;;19.27;4.80;;;;;;;5.80;88.64;102853.84;5062865;28;20306;-74
2022/03/28 01:43:00;;;;;;;19.50;5.50;;;;;;;5.78;89.20;102852.84;5067432;28;20162;-73
2022/03/28 01:45:28;;;;;;;16.25;4.20;;;;;;;5.74;89.21;102844.72;5075076;28;20059;-73
2022/03/28 01:47:56;;;;;;;24.92;5.20;;;;;;;5.75;89.09;102847.44;5081992;28;20152;-78
2022/03/28 01:50:24;;;;;;;22.10;5.43;;;;;;;5.76;89.39;102848.31;5080295;28;20048;-79
2022/03/28 01:52:53;;;;;;;23.58;5.20;;;;;;;5.72;89.60;102844.63;5076057;28;20070;-78
2022/03/28 01:55:24;;;;;;;19.77;4.70;;;;;;;5.72;89.45;102846.31;5076430;28;20068;-78
2022/03/28 01:57:54;;;;;;;17.45;4.85;;;;;;;5.68;89.31;102833.91;5075924;28;20059;-78
2022/03/28 02:00:25;;;;;;;23.65;5.22;;;;;;;5.66;89.64;102840.72;5075489;28;20062;-78
2022/03/28 02:02:53;;;;;;;22.13;6.03;;;;;;;5.62;89.12;102838.72;5080634;28;20053;-78
2022/03/28 02:05:21;;;;;;;20.63;5.00;;;;;;;5.57;89.04;102835.81;5077201;28;20048;-78
2022/03/28 02:07:50;;;;;;;24.35;5.47;;;;;;;5.55;89.17;102832.22;5075433;28;20131;-78
2022/03/28 02:10:20;;;;;;;17.20;5.38;;;;;;;5.50;89.70;102831.00;5075208;28;20063;-78
2022/03/28 02:12:51;;;;;;;17.85;4.75;;;;;;;5.50;89.96;102828.41;5060537;28;20143;-79
2022/03/28 02:15:21;;;;;;;21.25;5.13;;;;;;;5.46;89.54;102826.41;5066546;28;20049;-78
2022/03/28 02:17:49;;;;;;;14.23;4.68;;;;;;;5.44;89.81;102826.31;5071703;28;20056;-79
2022/03/28 02:20:17;;;;;;;18.77;5.03;;;;;;;5.41;89.98;102820.91;5077175;28;20049;-78
2022/03/28 02:22:46;;;;;;;18.00;5.47;;;;;;;5.41;89.95;102817.41;5083836;28;20051;-79
2022/03/28 02:25:15;;;;;;;15.82;4.68;;;;;;;5.40;89.95;102815.59;5080228;28;20066;-78
2022/03/28 02:27:44;;;;;;;23.60;4.97;;;;;;;5.41;89.95;102812.19;5080385;28;20771;-79
2022/03/28 02:30:17;;;;;;;22.90;5.13;;;;;;;5.39;90.14;102809.50;5078031;28;20080;-79
2022/03/28 02:32:45;;;;;;;22.65;4.38;;;;;;;5.36;90.25;102813.59;5077786;28;20559;-79
2022/03/28 02:35:14;;;;;;;18.83;5.90;;;;;;;5.31;90.38;102809.78;5076899;28;20064;-79
2022/03/28 02:37:43;;;;;;;18.70;5.25;;;;;;;5.29;90.48;102812.28;5076916;28;20098;-79
2022/03/28 02:40:13;;;;;;;26.17;5.72;;;;;;;5.29;90.51;102800.97;5078897;28;20087;-78
2022/03/28 02:42:42;;;;;;;26.88;6.15;;;;;;;5.25;90.46;102802.47;5080328;28;20050;-76
2022/03/28 02:45:11;;;;;;;18.17;5.32;;;;;;;5.21;90.22;102800.47;5079779;28;20068;-78
2022/03/28 02:47:41;;;;;;;15.70;6.05;;;;;;;5.16;90.59;102795.00;5084486;28;20485;-77
2022/03/28 02:50:10;;;;;;;24.25;5.55;;;;;;;5.13;90.26;102789.59;5081611;28;20051;-77
2022/03/28 02:52:38;;;;;;;18.20;5.05;;;;;;;5.12;90.57;102787.78;5083087;28;20127;-77
2022/03/28 02:55:07;;;;;;;18.38;5.28;;;;;;;5.11;90.54;102785.09;5074034;28;20568;-77
2022/03/28 02:57:36;;;;;;;24.25;6.45;;;;;;;5.09;91.28;102771.09;5077620;28;20048;-76
2022/03/28 03:00:10;;;;;;;20.75;5.00;;;;;;;5.08;91.11;102769.28;5078213;28;20054;-77
2022/03/28 03:02:39;;;;;;;21.90;5.63;;;;;;;5.10;90.80;102765.09;5079064;28;20043;-77
2022/03/28 03:05:10;;;;;;;19.80;4.80;;;;;;;5.07;91.18;102763.19;5080013;28;20078;-78
2022/03/28 03:07:38;;;;;;;24.15;5.45;;;;;;;5.04;91.11;102762.97;5078112;28;20044;-78
2022/03/28 03:10:08;;;;;;;21.60;5.45;;;;;;;5.04;91.09;102760.38;5080961;28;20072;-78
2022/03/28 03:12:40;;;;;;;20.58;5.75;;;;;;;5.02;91.17;102763.69;5076005;28;20042;-74
2022/03/28 03:15:09;;;;;;;23.40;6.20;;;;;;;4.98;91.21;102764.28;5079793;28;20059;-75
2022/03/28 03:17:37;;;;;;;28.13;6.03;;;;;;;4.97;91.13;102770.28;5078980;28;20040;-74
2022/03/28 03:20:07;;;;;;;16.67;5.00;;;;;;;4.95;91.26;102766.66;5074677;28;20456;-73
2022/03/28 03:22:36;;;;;;;16.88;6.10;;;;;;;4.92;91.38;102767.38;5076896;28;20047;-73
2022/03/28 03:25:05;;;;;;;20.85;6.10;;;;;;;4.89;91.35;102762.88;5076368;28;20153;-73
2022/03/28 03:27:37;;;;;;;24.15;5.43;;;;;;;4.85;91.45;102750.47;5076393;28;20081;-73
2022/03/28 03:30:07;;;;;;;25.20;6.28;;;;;;;4.85;91.76;102749.56;5067145;28;20109;-74
2022/03/28 03:32:35;;;;;;;19.63;6.68;;;;;;;4.81;91.54;102745.84;5073516;28;20044;-73
2022/03/28 03:35:04;;;;;;;23.38;7.05;;;;;;;4.80;91.74;102750.94;5074506;28;20500;-73
2022/03/28 03:37:34;;;;;;;24.30;5.32;;;;;;;4.78;91.70;102745.66;5078426;28;20043;-72
2022/03/28 03:40:05;;;;;;;14.20;5.97;;;;;;;4.77;92.26;102749.03;5075787;28;20044;-73
2022/03/28 03:42:32;;;;;;;20.08;5.90;;;;;;;4.76;91.71;102748.94;5075608;28;20047;-73
2022/03/28 03:45:05;;;;;;;14.88;5.57;;;;;;;4.73;91.81;102744.44;5076381;28;20100;-73
2022/03/28 03:47:34;;;;;;;21.95;6.40;;;;;;;4.73;91.96;102744.44;5080360;28;20036;-72
2022/03/28 03:50:05;;;;;;;18.88;5.22;;;;;;;4.69;92.23;102739.84;5078934;28;20044;-74
2022/03/28 03:52:35;;;;;;;26.10;7.90;;;;;;;4.67;92.25;102738.81;5073890;28;20481;-73
2022/03/28 03:55:07;;;;;;;33.40;6.88;;;;;;;4.66;92.14;102738.72;5079420;28;20039;-74
2022/03/28 03:57:37;;;;;;;25.55;6.25;;;;;;;4.65;92.29;102740.41;5072878;28;20071;-73
2022/03/28 04:00:07;;;;;;;24.02;6.22;;;;;;;4.63;92.31;102726.44;5073455;28;20074;-74
2022/03/28 04:02:37;;;;;;;26.90;6.72;;;;;;;4.58;92.65;102727.81;5075095;28;20192;-73
2022/03/28 04:05:06;;;;;;;18.42;5.85;;;;;;;4.57;92.29;102726.91;5077997;28;20052;-74
2022/03/28 04:07:37;;;;;;;31.17;6.18;;;;;;;4.58;92.49;102733.00;5081848;28;20540;-74
2022/03/28 04:10:10;;;;;;;24.70;6.95;;;;;;;4.57;92.83;102726.91;5075247;28;20112;-75
2022/03/28 04:12:39;;;;;;;26.20;5.75;;;;;;;4.53;92.86;102724.91;5072420;28;20402;-74
2022/03/28 04:15:10;;;;;;;23.63;6.55;;;;;;;4.50;92.68;102719.50;5076394;28;20067;-74
2022/03/28 04:17:40;;;;;;;25.95;8.02;;;;;;;4.50;92.74;102729.00;5073801;28;20059;-74
2022/03/28 04:20:10;;;;;;;20.60;5.75;;;;;;;4.48;92.51;102730.59;5076124;28;20113;-73
2022/03/28 04:22:39;;;;;;;20.98;6.55;;;;;;;4.44;92.49;102724.28;5079644;28;20039;-73
2022/03/28 04:25:11;;;;;;;28.83;6.68;;;;;;;4.42;93.02;102730.16;5078144;28;20131;-75
2022/03/28 04:27:41;;;;;;;29.60;8.15;;;;;;;4.41;93.01;102728.38;5055641;28;20132;-74
2022/03/28 04:30:15;;;;;;;20.60;5.85;;;;;;;4.40;92.47;102731.75;5074090;28;20052;-74
2022/03/28 04:32:44;;;;;;;21.55;7.10;;;;;;;4.38;92.62;102733.34;5073497;28;20052;-73
2022/03/28 04:35:14;;;;;;;23.05;7.18;;;;;;;4.35;93.04;102727.94;5077519;28;20055;-73
2022/03/28 04:37:44;;;;;;;17.67;6.63;;;;;;;4.31;93.25;102725.94;5074825;28;20067;-74
2022/03/28 04:40:16;;;;;;;27.63;7.00;;;;;;;4.31;92.74;102725.94;5074888;28;20048;-74
2022/03/28 04:42:44;;;;;;;23.10;7.20;;;;;;;4.31;93.23;102715.53;5076416;28;20044;-72
2022/03/28 04:45:14;;;;;;;22.80;7.00;;;;;;;4.28;93.06;102717.13;5068928;28;20064;-75
2022/03/28 04:47:43;;;;;;;24.15;6.63;;;;;;;4.27;93.13;102715.34;5071698;28;20044;-74
2022/03/28 04:50:11;;;;;;;24.52;7.72;;;;;;;4.25;93.60;102713.44;5065124;28;20049;-78
2022/03/28 04:52:39;;;;;;;27.85;8.23;;;;;;;4.23;93.36;102705.53;5080333;28;20044;-78
2022/03/28 04:55:08;;;;;;;21.98;6.72;;;;;;;4.25;93.65;102703.94;5081194;28;20056;-78
2022/03/28 04:57:38;;;;;;;25.83;7.40;;;;;;;4.31;93.67;102694.78;5074740;28;20116;-79
2022/03/28 05:00:09;;;;;;;28.75;8.23;;;;;;;4.31;93.65;102689.56;5075064;28;20036;-73
2022/03/28 05:02:37;;;;;;;33.17;8.52;;;;;;;4.28;94.27;102693.75;5076617;28;20104;-74
2022/03/28 05:05:07;;;;;;;29.35;8.35;;;;;;;4.27;93.77;102697.16;5072727;28;20064;-75
2022/03/28 05:07:35;;;;;;;27.98;8.10;;;;;;;4.26;93.59;102691.84;5070641;28;20044;-74
2022/03/28 05:10:06;;;;;;;29.20;8.68;;;;;;;4.20;93.64;102699.22;5074541;28;20052;-73
2022/03/28 05:12:35;;;;;;;28.40;7.43;;;;;;;4.19;93.69;102700.94;5076487;28;20038;-73
2022/03/28 05:15:06;;;;;;;24.20;8.38;;;;;;;4.16;93.78;102695.53;5076695;28;20039;-73
2022/03/28 05:17:34;;;;;;;29.08;8.43;;;;;;;4.15;93.47;102693.75;5076418;28;20456;-73
2022/03/28 05:20:02;;;;;;;27.27;8.95;;;;;;;4.15;93.79;102703.25;5076446;28;20223;-74
2022/03/28 05:22:31;;;;;;;26.98;8.95;;;;;;;4.14;93.54;102696.25;5076684;28;20044;-73
2022/03/28 05:24:59;;;;;;;22.77;8.23;;;;;;;4.15;93.47;102698.03;5078309;28;20043;-74
2022/03/28 05:27:28;;;;;;;28.63;10.02;;;;;;;4.13;94.08;102703.13;5076974;28;20181;-74
2022/03/28 05:29:56;;;;;;;24.67;8.88;;;;;;;4.10;93.76;102697.72;5081144;28;20056;-74
2022/03/28 05:32:28;;;;;;;26.48;8.52;;;;;;;4.09;93.33;102698.53;5077085;28;20055;-75
2022/03/28 05:34:56;;;;;;;27.50;8.13;;;;;;;4.07;94.02;102702.72;5078568;28;20063;-75
2022/03/28 05:37:24;;;;;;;20.77;9.02;;;;;;;4.05;93.76;102695.63;5073296;28;20148;-73
2022/03/28 05:39:52;;;;;;;32.15;9.55;;;;;;;4.05;94.32;102691.31;5073869;28;20561;-73
2022/03/28 05:42:20;;;;;;;27.73;9.63;;;;;;;4.06;94.25;102693.13;5074779;28;20064;-73
2022/03/28 05:44:48;;;;;;;31.08;9.35;;;;;;;4.07;94.00;102687.13;5073949;28;20453;-74
2022/03/28 05:47:16;;;;;;;31.77;9.57;;;;;;;4.09;94.48;102672.56;5072635;28;20238;-73
2022/03/28 05:49:46;;;;;;;28.20;9.82;;;;;;;4.14;94.54;102676.38;5072995;28;20059;-80
2022/03/28 05:52:14;;;;;;;28.90;9.95;;;;;;;4.16;94.79;102673.88;5075558;28;20052;-77
2022/03/28 05:54:42;;;;;;;29.33;10.43;;;;;;;4.20;94.64;102679.34;5073589;28;20048;-78
2022/03/28 05:57:10;;;;;;;35.13;10.10;;;;;;;4.25;94.79;102670.19;5071134;28;20044;-77
2022/03/28 05:59:41;;;;;;;32.67;10.77;;;;;;;4.32;94.57;102671.50;5079016;28;20055;-73
2022/03/28 06:02:10;;;;;;;31.52;9.70;;;;;;;4.40;94.24;102679.81;5075136;28;20523;-73
2022/03/28 06:04:40;;;;;;;34.17;11.55;;;;;;;4.44;93.97;102672.31;5076540;28;20111;-73
2022/03/28 06:07:10;;;;;;;33.67;13.18;;;;;;;4.50;94.51;102671.84;5081275;28;20050;-78
2022/03/28 06:09:38;;;;;;;34.80;10.13;;;;;;;4.57;94.18;102668.84;5081585;28;20040;-72
2022/03/28 06:12:07;;;;;;;32.35;10.90;;;;;;;4.69;94.28;102666.16;5071449;28;20052;-72
2022/03/28 06:14:35;;;;;;;30.48;11.40;;;;;;;4.75;93.77;102672.66;5078900;28;20538;-74
2022/03/28 06:17:03;;;;;;;35.95;11.27;;;;;;;4.84;93.61;102668.06;5070375;28;20052;-74
2022/03/28 06:19:34;;;;;;;40.10;11.27;;;;;;;4.92;93.64;102668.56;5078583;28;20618;-73
2022/03/28 06:22:04;;;;;;;42.03;12.07;;;;;;;4.95;93.62;102667.88;5080872;28;20054;-78
2022/03/28 06:24:33;;;;;;;30.70;11.48;;;;;;;5.03;93.59;102670.16;5077332;28;20255;-77
2022/03/28 06:27:01;;;;;;;33.33;11.93;;;;;;;5.03;93.12;102666.66;5079365;28;20277;-77
2022/03/28 06:29:29;;;;;;;39.53;13.38;;;;;;;5.10;93.14;102663.66;5081003;28;20056;-76
2022/03/28 06:31:57;;;;;;;39.33;11.85;;;;;;;5.16;92.99;102669.25;5082140;28;20044;-77
2022/03/28 06:34:25;;;;;;;31.50;11.75;;;;;;;5.21;92.72;102660.00;5078340;28;20048;-77
2022/03/28 06:36:53;;;;;;;38.75;12.63;;;;;;;5.27;92.62;102665.59;5068022;28;20096;-77
2022/03/28 06:39:21;;;;;;;37.40;12.60;;;;;;;5.33;92.60;102667.69;5080051;28;20048;-75
2022/03/28 06:41:50;;;;;;;37.88;12.48;;;;;;;5.31;92.56;102664.09;5073997;28;20557;-77
2022/03/28 06:44:18;;;;;;;35.42;12.07;;;;;;;5.33;92.72;102662.50;5080497;28;20048;-77
2022/03/28 06:46:47;;;;;;;31.33;11.07;;;;;;;5.33;92.57;102655.59;5077010;28;20101;-77
2022/03/28 06:49:15;;;;;;;36.70;13.32;;;;;;;5.42;92.47;102665.69;5079567;28;20620;-76
2022/03/28 06:51:43;;;;;;;33.08;13.10;;;;;;;5.42;92.58;102652.66;5079513;28;20048;-75
2022/03/28 06:54:14;;;;;;;30.80;12.23;;;;;;;5.50;92.51;102651.44;5074758;28;20113;-75
2022/03/28 06:56:45;;;;;;;34.30;12.40;;;;;;;5.56;92.26;102652.72;5076615;28;20087;-73
2022/03/28 06:59:14;;;;;;;37.70;13.77;;;;;;;5.58;92.06;102651.13;5077582;28;20049;-73
2022/03/28 07:01:43;;;;;;;48.90;14.82;;;;;;;5.69;91.48;102650.88;5071950;28;22943;-73
2022/03/28 07:04:11;;;;;;;48.40;15.02;;;;;;;5.72;91.60;102649.38;5076981;28;20067;-75
2022/03/28 07:06:40;;;;;;;36.88;15.25;;;;;;;5.80;91.54;102649.84;5064736;28;20143;-74
2022/03/28 07:09:08;;;;;;;31.38;13.57;;;;;;;5.89;91.53;102645.22;5073895;28;20052;-74
2022/03/28 07:11:36;;;;;;;41.45;13.93;;;;;;;5.99;91.24;102647.59;5076122;28;20048;-73
2022/03/28 07:14:05;;;;;;;35.70;13.70;;;;;;;6.13;90.82;102648.41;5074539;28;20468;-74
2022/03/28 07:16:36;;;;;;;38.42;13.30;;;;;;;6.31;90.58;102645.97;5081373;28;20056;-73
2022/03/28 07:19:05;;;;;;;46.75;15.52;;;;;;;6.37;90.04;102643.72;5079040;28;20072;-73
2022/03/28 07:21:34;;;;;;;38.75;13.98;;;;;;;6.40;89.58;102639.59;5074594;28;20051;-74
2022/03/28 07:24:07;;;;;;;37.72;13.18;;;;;;;6.62;89.09;102636.53;5080445;28;20043;-74
2022/03/28 07:26:35;;;;;;;36.88;13.93;;;;;;;6.80;88.60;102636.69;5075195;28;20126;-74
2022/03/28 07:29:04;;;;;;;32.85;13.43;;;;;;;6.95;88.38;102634.94;5075527;28;20110;-75
2022/03/28 07:31:36;;;;;;;37.85;13.57;;;;;;;7.15;87.76;102625.63;5076831;28;20484;-74
2022/03/28 07:36:49;;;;;;;37.92;13.95;;;;;;;7.29;86.05;102632.47;5077632;28;20055;-74
2022/03/28 07:39:18;;;;;;;33.15;13.35;;;;;;;7.47;85.76;102632.59;5082952;28;20159;-73
2022/03/28 07:41:49;;;;;;;30.35;13.20;;;;;;;7.61;84.92;102628.13;5073912;28;20080;-73
2022/03/28 07:44:18;;;;;;;36.67;13.43;;;;;;;7.93;84.73;102617.66;5080691;28;20565;-75
2022/03/28 07:46:50;;;;;;;32.33;12.98;;;;;;;8.03;83.79;102619.94;5079002;28;20049;-75
2022/03/28 07:49:18;;;;;;;36.10;13.13;;;;;;;7.95;83.46;102620.34;5080987;28;20044;-75
2022/03/28 07:51:48;;;;;;;28.80;12.32;;;;;;;8.16;82.63;102616.25;5078573;28;20048;-75
2022/03/28 07:54:18;;;;;;;33.45;13.80;;;;;;;8.13;82.74;102611.75;5081860;28;20068;-75
2022/03/28 07:56:46;;;;;;;32.47;13.82;;;;;;;8.09;81.69;102615.03;5078585;28;20096;-76
2022/03/28 07:59:14;;;;;;;38.50;14.70;;;;;;;8.16;81.92;102618.84;5072201;28;20483;-74
2022/03/28 08:01:43;;;;;;;31.42;13.15;;;;;;;8.36;81.32;102619.88;5080215;28;20064;-74
2022/03/28 08:04:13;;;;;;;27.38;12.15;;;;;;;8.27;81.55;102622.91;5077203;28;20171;-73
2022/03/28 08:06:41;;;;;;;27.25;11.65;;;;;;;8.18;81.03;102620.72;5070861;28;20068;-74
2022/03/28 08:09:09;;;;;;;29.52;12.75;;;;;;;8.39;80.65;102615.69;5079419;28;20056;-73
2022/03/28 08:11:38;;;;;;;30.98;12.80;;;;;;;8.44;80.44;102619.44;5086631;28;20131;-74
2022/03/28 08:14:11;;;;;;;30.77;13.43;;;;;;;8.55;79.54;102617.34;5075166;28;20200;-74
2022/03/28 08:16:39;;;;;;;27.15;13.20;;;;;;;8.82;79.42;102609.97;5069747;28;20539;-74
2022/03/28 08:19:09;;;;;;;28.33;13.70;;;;;;;9.00;78.76;102609.94;5072052;28;20040;-74
2022/03/28 08:21:38;;;;;;;24.48;12.40;;;;;;;9.12;78.54;102607.91;5077476;28;20048;-73
2022/03/28 08:24:07;;;;;;;30.30;14.18;;;;;;;9.32;78.21;102619.31;5081282;28;20195;-74
2022/03/28 08:26:35;;;;;;;26.63;12.75;;;;;;;9.49;77.04;102616.63;5075705;28;20176;-74
2022/03/28 08:29:04;;;;;;;23.70;11.52;;;;;;;9.55;77.35;102607.25;5076682;28;20047;-74
2022/03/28 08:31:32;;;;;;;23.38;11.00;;;;;;;9.95;76.14;102602.97;5080495;28;20044;-74
2022/03/28 08:34:00;;;;;;;28.83;12.43;;;;;;;9.98;75.30;102604.84;5076407;28;20048;-74
2022/03/28 08:36:30;;;;;;;27.48;11.45;;;;;;;10.06;75.11;102596.47;5076825;28;20080;-75
2022/03/28 08:39:00;;;;;;;29.40;12.60;;;;;;;9.85;74.22;102603.41;5078539;28;20303;-74
2022/03/28 08:41:29;;;;;;;28.75;13.35;;;;;;;10.26;74.71;102591.22;5078787;28;20059;-75
2022/03/28 08:43:57;;;;;;;25.80;12.77;;;;;;;10.41;73.95;102583.97;5080524;28;20048;-73
2022/03/28 08:46:31;;;;;;;30.17;12.50;;;;;;;10.75;73.00;102579.25;5072738;28;20052;-74
2022/03/28 08:49:00;;;;;;;29.33;12.43;;;;;;;10.41;73.06;102573.47;5075316;28;20098;-74
2022/03/28 08:51:28;;;;;;;28.40;13.52;;;;;;;10.59;72.34;102568.97;5072030;28;20056;-75
2022/03/28 08:53:57;;;;;;;32.00;13.02;;;;;;;10.62;72.72;102557.72;5071948;28;20054;-75
2022/03/28 08:56:28;;;;;;;30.10;13.70;;;;;;;10.69;71.92;102572.88;5074282;28;20530;-77
2022/03/28 08:59:08;;;;;;;22.55;12.93;;;;;;;10.70;70.94;102575.56;5073470;28;20053;-76
2022/03/28 09:01:37;;;;;;;27.88;12.52;;;;;;;10.91;71.41;102566.75;5058981;28;20463;-76
2022/03/28 09:04:10;;;;;;;26.17;12.02;;;;;;;11.02;70.34;102571.59;5075489;28;20063;-76
2022/03/28 09:06:42;;;;;;;24.10;12.50;;;;;;;11.09;70.23;102575.34;5072018;28;20036;-77
2022/03/28 09:09:17;;;;;;;29.73;12.82;;;;;;;11.33;69.37;102568.41;5074146;28;20047;-77
2022/03/28 09:11:48;;;;;;;32.97;12.88;;;;;;;11.17;69.87;102570.38;5077813;28;20052;-77
2022/03/28 09:14:25;;;;;;;25.15;12.48;;;;;;;11.31;69.84;102570.06;5078811;28;20047;-77
2022/03/28 09:17:08;;;;;;;30.50;13.35;;;;;;;11.25;69.86;102572.47;5076759;28;20052;-75
2022/03/28 09:19:51;;;;;;;26.13;12.85;;;;;;;11.77;69.92;102571.78;5075532;28;20098;-75
2022/03/28 09:22:23;;;;;;;28.63;12.95;;;;;;;11.47;68.64;102572.41;5061444;28;20135;-75
2022/03/28 09:24:53;;;;;;;26.83;12.65;;;;;;;11.63;68.54;102568.59;5070913;28;20498;-76
2022/03/28 09:27:24;;;;;;;29.20;12.93;;;;;;;12.02;67.55;102563.00;5076995;28;20056;-75
2022/03/28 09:29:59;;;;;;;26.38;13.20;;;;;;;11.78;67.55;102558.69;5080465;28;20127;-76
2022/03/28 09:32:29;;;;;;;28.08;13.40;;;;;;;12.25;67.53;102554.19;5073169;28;20136;-75
2022/03/28 09:35:09;;;;;;;28.30;14.10;;;;;;;12.20;66.77;102562.75;5081196;28;20048;-75
2022/03/28 09:37:53;;;;;;;28.05;12.60;;;;;;;12.56;65.78;102556.03;5076816;28;20072;-75
2022/03/28 09:40:39;;;;;;;;;;;;;;;12.59;65.74;102553.50;5082648;28;20082;-77
2022/03/28 09:43:17;;;;;;;23.95;11.32;;;;;;;12.27;64.83;102548.97;5086332;28;19916;-77
2022/03/28 09:45:50;;;;;;;25.58;13.73;;;;;;;12.36;66.44;102549.28;5081386;28;20044;-77
2022/03/28 09:48:22;;;;;;;25.42;11.57;;;;;;;12.87;65.55;102543.84;5080227;28;20048;-77
2022/03/28 09:50:58;;;;;;;30.10;12.98;;;;;;;12.68;64.45;102538.00;5078842;28;20052;-76
2022/03/28 09:53:31;;;;;;;29.83;14.00;;;;;;;12.85;63.92;102540.28;5080846;28;20072;-77
2022/03/28 09:56:02;;;;;;;26.60;12.27;;;;;;;13.28;63.97;102537.22;5079867;28;20063;-76
2022/03/28 09:58:46;;;;;;;32.90;12.45;;;;;;;13.04;63.16;102543.53;5071775;28;20052;-77
2022/03/28 10:01:40;;;;;;;30.65;13.82;;;;;;;12.93;64.32;102536.16;5083504;28;20543;-75
2022/03/28 10:04:16;;;;;;;32.20;13.35;;;;;;;13.02;64.09;102528.53;5079884;28;20050;-77
2022/03/28 10:06:44;;;;;;;27.02;12.95;;;;;;;13.31;63.59;102521.50;5078599;28;20060;-75
2022/03/28 10:09:15;;;;;;;25.58;13.80;;;;;;;13.41;62.52;102518.28;5076746;28;20063;-75
2022/03/28 10:11:43;;;;;;;28.50;12.45;;;;;;;13.37;62.26;102519.06;5082666;28;20059;-76
2022/03/28 10:14:14;;;;;;;34.38;13.57;;;;;;;13.75;62.55;102522.72;5078996;28;20513;-76
2022/03/28 10:16:43;;;;;;;31.70;13.27;;;;;;;13.73;61.37;102517.41;5079332;28;20101;-76
2022/03/28 10:19:11;;;;;;;25.10;12.88;;;;;;;13.41;61.43;102513.03;5084089;28;20501;-76
2022/03/28 10:21:40;;;;;;;31.85;13.38;;;;;;;13.77;61.60;102512.22;5072523;28;20083;-76
2022/03/28 10:24:15;;;;;;;27.88;12.95;;;;;;;14.34;61.34;102502.25;5079754;28;20125;-76
2022/03/28 10:26:47;;;;;;;27.50;12.15;;;;;;;14.52;60.12;102499.19;5078178;28;20553;-76
2022/03/28 10:29:19;;;;;;;27.50;12.73;;;;;;;14.30;58.40;102490.75;5076666;28;20135;-78
2022/03/28 10:31:55;;;;;;;29.65;13.50;;;;;;;14.55;58.69;102492.25;5082054;28;20077;-78
2022/03/28 10:34:48;;;;;;;29.58;13.68;;;;;;;14.82;59.15;102488.41;5081217;28;20036;-77
2022/03/28 10:37:29;;;;;;;30.63;12.55;;;;;;;15.28;59.21;102485.88;5083121;28;20164;-76
2022/03/28 10:40:21;;;;;;;30.23;13.75;;;;;;;15.01;58.36;102486.19;5074404;28;20186;-77
2022/03/28 10:42:52;;;;;;;29.92;12.43;;;;;;;15.31;57.40;102475.38;5071607;28;20493;-75
2022/03/28 10:45:22;;;;;;;29.63;13.35;;;;;;;15.18;57.97;102480.38;5079713;28;20344;-76
2022/03/28 10:47:52;;;;;;;27.55;13.88;;;;;;;15.04;57.67;102482.72;5076501;28;20052;-76
2022/03/28 10:50:28;;;;;;;31.48;12.45;;;;;;;15.62;57.36;102475.97;5080410;28;20044;-75
2022/03/28 10:53:08;;;;;;;32.67;13.55;;;;;;;14.71;57.26;102477.59;5077698;28;20052;-76
2022/03/28 10:55:39;;;;;;;31.45;12.98;;;;;;;14.95;57.81;102470.22;5078300;28;20461;-76
2022/03/28 10:58:15;;;;;;;28.30;12.38;;;;;;;15.38;57.69;102464.06;5077275;28;20052;-78
2022/03/28 11:01:19;;;;;;;30.45;13.40;;;;;;;15.43;58.15;102466.78;5081558;28;20064;-78
2022/03/28 11:03:52;;;;;;;32.63;12.88;;;;;;;14.82;57.71;102454.97;5073696;28;20117;-76
2022/03/28 11:06:21;;;;;;;24.83;11.95;;;;;;;14.54;58.77;102456.13;5081393;28;20051;-77
2022/03/28 11:08:59;;;;;;;25.45;11.80;;;;;;;14.46;60.32;102460.34;5081176;28;20063;-77
2022/03/28 11:11:31;;;;;;;26.40;12.50;;;;;;;15.17;58.87;102447.78;5075238;28;20135;-77
2022/03/28 11:14:02;;;;;;;29.85;12.43;;;;;;;15.61;57.60;102455.66;5077068;28;20163;-79
2022/03/28 11:16:42;;;;;;;29.48;12.13;;;;;;;15.68;55.95;102445.22;5080027;28;20044;-78
2022/03/28 11:19:29;;;;;;;25.40;12.27;;;;;;;15.73;56.26;102445.31;5072876;28;20076;-79
2022/03/28 11:21:59;;;;;;;32.95;11.75;;;;;;;16.03;55.82;102450.22;5079959;28;20056;-80
2022/03/28 11:24:49;;;;;;;30.35;12.75;;;;;;;16.65;55.16;102443.22;5084688;28;20040;-79
2022/03/28 11:27:18;;;;;;;43.67;35.22;;;;;;;16.89;54.06;102441.78;5078190;28;20104;-78
2022/03/28 11:29:47;;;;;;;40.95;33.10;;;;;;;16.91;52.07;102440.03;5086406;28;20444;-77
2022/03/28 11:32:18;;;;;;;27.58;15.65;;;;;;;16.77;53.01;102439.88;5083329;28;20052;-78
2022/03/28 11:34:52;;;;;;;25.27;11.68;;;;;;;17.08;52.78;102427.00;5082054;28;20047;-78
2022/03/28 11:37:24;;;;;;;28.13;12.40;;;;;;;17.15;51.71;102426.19;5072142;28;20497;-74
2022/03/28 11:39:55;;;;;;;32.03;12.73;;;;;;;17.43;52.71;102427.38;5076658;28;20197;-74